Time,TemperatureF,DewpointF,PressureIn,WindDirection,WindDirectionDegrees,WindSpeedMPH,WindSpeedGustMPH,Humidity,HourlyPrecipIn,Conditions,Clouds,dailyrainin,SoftwareType,DateUTC
2013-01-02 00:10:00,25.5,14.3,29.91,WSW,253,2.0,2.0,62,0.00,,,0.00,Wunderground v.1.15,2013-01-02 05:10:00,
2013-01-02 00:20:00,25.3,14.5,29.91,West,278,2.0,2.0,63,0.00,,,0.00,Wunderground v.1.15,2013-01-02 05:20:00,
2013-01-02 00:30:00,25.1,13.9,29.91,North,350,3.0,3.0,62,0.00,,,0.00,Wunderground v.1.15,2013-01-02 05:30:00,
2013-01-02 00:40:00,25.0,13.4,29.91,WNW,296,3.0,5.0,61,0.00,,,0.00,Wunderground v.1.15,2013-01-02 05:40:00,
2013-01-02 00:50:00,24.9,13.3,29.91,WSW,237,3.0,3.0,61,0.00,,,0.00,Wunderground v.1.15,2013-01-02 05:50:00,
2013-01-02 01:00:00,24.6,12.7,29.91,West,263,4.0,4.0,60,0.00,,,0.00,Wunderground v.1.15,2013-01-02 06:00:00,
2013-01-02 01:09:00,24.4,12.5,29.92,West,269,3.0,3.0,60,0.00,,,0.00,Wunderground v.1.15,2013-01-02 06:09:00,
2013-01-02 01:20:00,24.1,12.2,29.92,West,274,3.0,7.0,60,0.00,,,0.00,Wunderground v.1.15,2013-01-02 06:20:00,
2013-01-02 01:30:00,23.9,12.0,29.92,West,277,3.0,3.0,60,0.00,,,0.00,Wunderground v.1.15,2013-01-02 06:30:00,
2013-01-02 01:40:00,23.8,11.9,29.93,WNW,293,3.0,4.0,60,0.00,,,0.00,Wunderground v.1.15,2013-01-02 06:40:00,
2013-01-02 01:49:00,23.7,12.2,29.93,WNW,302,3.0,3.0,61,0.00,,,0.00,Wunderground v.1.15,2013-01-02 06:49:00,
2013-01-02 02:00:00,23.5,12.0,29.93,WNW,290,3.0,3.0,61,0.00,,,0.00,Wunderground v.1.15,2013-01-02 07:00:00,
2013-01-02 02:10:00,23.3,12.2,29.94,WSW,255,3.0,3.0,62,0.00,,,0.00,Wunderground v.1.15,2013-01-02 07:10:00,
2013-01-02 02:20:00,23.1,12.0,29.94,West,260,2.0,5.0,62,0.00,,,0.00,Wunderground v.1.15,2013-01-02 07:20:00,
2013-01-02 02:30:00,23.0,12.3,29.95,SW,231,3.0,3.0,63,0.00,,,0.00,Wunderground v.1.15,2013-01-02 07:30:00,
2013-01-02 02:40:00,22.6,12.6,29.95,WNW,299,1.0,2.0,65,0.00,,,0.00,Wunderground v.1.15,2013-01-02 07:40:00,
2013-01-02 02:50:00,22.5,12.1,29.95,WNW,298,2.0,2.0,64,0.00,,,0.00,Wunderground v.1.15,2013-01-02 07:50:00,
2013-01-02 03:00:00,22.3,12.3,29.95,West,264,2.0,2.0,65,0.00,,,0.00,Wunderground v.1.15,2013-01-02 08:00:00,
2013-01-02 03:10:00,22.3,12.0,29.95,SW,221,2.0,4.0,64,0.00,,,0.00,Wunderground v.1.15,2013-01-02 08:10:00,
2013-01-02 03:20:00,21.9,11.9,29.95,WNW,286,2.0,2.0,65,0.00,,,0.00,Wunderground v.1.15,2013-01-02 08:20:00,
2013-01-02 03:30:00,21.7,11.7,29.95,WNW,283,2.0,2.0,65,0.00,,,0.00,Wunderground v.1.15,2013-01-02 08:30:00,
2013-01-02 03:40:00,21.5,11.5,29.95,SW,233,2.0,2.0,65,0.00,,,0.00,Wunderground v.1.15,2013-01-02 08:40:00,
2013-01-02 03:50:00,21.3,11.7,29.94,West,270,2.0,2.0,66,0.00,,,0.00,Wunderground v.1.15,2013-01-02 08:50:00,
2013-01-02 04:00:00,21.2,11.3,29.94,West,269,3.0,3.0,65,0.00,,,0.00,Wunderground v.1.15,2013-01-02 09:00:00,
2013-01-02 04:10:00,21.1,11.2,29.94,NW,307,2.0,3.0,65,0.00,,,0.00,Wunderground v.1.15,2013-01-02 09:10:00,
2013-01-02 04:20:00,20.9,10.6,29.94,West,264,3.0,3.0,64,0.00,,,0.00,Wunderground v.1.15,2013-01-02 09:20:00,
2013-01-02 04:30:00,20.8,10.5,29.94,West,276,3.0,3.0,64,0.00,,,0.00,Wunderground v.1.15,2013-01-02 09:30:00,
2013-01-02 04:40:00,20.6,10.3,29.94,WSW,237,2.0,5.0,64,0.00,,,0.00,Wunderground v.1.15,2013-01-02 09:40:00,
2013-01-02 04:50:00,20.5,10.6,29.94,West,264,3.0,3.0,65,0.00,,,0.00,Wunderground v.1.15,2013-01-02 09:50:00,
2013-01-02 05:00:00,20.3,10.7,29.94,West,280,2.0,2.0,66,0.00,,,0.00,Wunderground v.1.15,2013-01-02 10:00:00,
2013-01-02 05:10:00,20.2,11.3,29.94,West,263,2.0,5.0,68,0.00,,,0.00,Wunderground v.1.15,2013-01-02 10:10:00,
2013-01-02 05:20:00,20.2,11.7,29.95,West,267,1.0,1.0,69,0.00,,,0.00,Wunderground v.1.15,2013-01-02 10:20:00,
2013-01-02 05:30:00,20.3,11.7,29.95,WNW,295,2.0,2.0,69,0.00,,,0.00,Wunderground v.1.15,2013-01-02 10:30:00,
2013-01-02 05:40:00,20.1,11.6,29.95,WNW,284,1.0,1.0,69,0.00,,,0.00,Wunderground v.1.15,2013-01-02 10:40:00,
2013-01-02 05:50:00,20.1,11.9,29.95,WSW,255,1.0,1.0,70,0.00,,,0.00,Wunderground v.1.15,2013-01-02 10:50:00,
2013-01-02 06:00:00,20.0,11.8,29.95,WSW,245,2.0,2.0,70,0.00,,,0.00,Wunderground v.1.15,2013-01-02 11:00:00,
2013-01-02 06:10:00,20.0,11.8,29.95,West,281,1.0,1.0,70,0.00,,,0.00,Wunderground v.1.15,2013-01-02 11:10:00,
2013-01-02 06:20:00,20.0,11.8,29.96,WSW,251,2.0,2.0,70,0.00,,,0.00,Wunderground v.1.15,2013-01-02 11:20:00,
2013-01-02 06:30:00,19.8,11.6,29.95,West,278,1.0,1.0,70,0.00,,,0.00,Wunderground v.1.15,2013-01-02 11:30:00,
2013-01-02 06:39:00,19.2,11.6,29.95,West,270,1.0,1.0,72,0.00,,,0.00,Wunderground v.1.15,2013-01-02 11:39:00,
2013-01-02 06:50:00,18.9,11.4,29.96,WNW,285,1.0,2.0,72,0.00,,,0.00,Wunderground v.1.15,2013-01-02 11:50:00,
2013-01-02 07:00:00,18.6,11.4,29.96,West,262,1.0,1.0,73,0.00,,,0.00,Wunderground v.1.15,2013-01-02 12:00:00,
2013-01-02 07:10:00,18.4,11.2,29.96,West,266,1.0,1.0,73,0.00,,,0.00,Wunderground v.1.15,2013-01-02 12:10:00,
2013-01-02 07:19:00,18.2,11.0,29.95,SW,235,1.0,1.0,73,0.00,,,0.00,Wunderground v.1.15,2013-01-02 12:19:00,
2013-01-02 07:30:00,18.1,10.9,29.96,WSW,243,1.0,1.0,73,0.00,,,0.00,Wunderground v.1.15,2013-01-02 12:30:00,
2013-01-02 07:40:00,18.8,11.3,29.96,West,271,1.0,1.0,72,0.00,,,0.00,Wunderground v.1.15,2013-01-02 12:40:00,
2013-01-02 07:50:00,19.7,11.8,29.95,West,264,1.0,1.0,71,0.00,,,0.00,Wunderground v.1.15,2013-01-02 12:50:00,
2013-01-02 07:59:00,20.2,12.9,29.95,WSW,253,0.0,0.0,73,0.00,,,0.00,Wunderground v.1.15,2013-01-02 12:59:00,
2013-01-02 08:10:00,20.0,11.5,29.95,WSW,256,1.0,1.0,69,0.00,,,0.00,Wunderground v.1.15,2013-01-02 13:10:00,
2013-01-02 08:20:00,20.2,11.3,29.96,SW,225,2.0,3.0,68,0.00,,,0.00,Wunderground v.1.15,2013-01-02 13:20:00,
2013-01-02 08:30:00,20.6,11.7,29.96,SW,236,2.0,2.0,68,0.00,,,0.00,Wunderground v.1.15,2013-01-02 13:30:00,
2013-01-02 08:40:00,21.1,11.5,29.96,WNW,295,2.0,3.0,66,0.00,,,0.00,Wunderground v.1.15,2013-01-02 13:40:00,
2013-01-02 08:50:00,21.5,11.9,29.96,WNW,290,2.0,2.0,66,0.00,,,0.00,Wunderground v.1.15,2013-01-02 13:50:00,
2013-01-02 09:00:00,22.1,12.5,29.97,West,262,2.0,3.0,66,0.00,,,0.00,Wunderground v.1.15,2013-01-02 14:00:00,
2013-01-02 09:10:00,22.7,13.0,29.97,West,260,2.0,2.0,66,0.00,,,0.00,Wunderground v.1.15,2013-01-02 14:10:00,
2013-01-02 09:20:00,23.6,13.9,29.97,SSW,203,2.0,4.0,66,0.00,,,0.00,Wunderground v.1.15,2013-01-02 14:20:00,
2013-01-02 09:30:00,24.1,14.0,29.97,West,276,2.0,2.0,65,0.00,,,0.00,Wunderground v.1.15,2013-01-02 14:30:00,
2013-01-02 09:40:00,24.7,14.6,29.97,West,271,2.0,2.0,65,0.00,,,0.00,Wunderground v.1.15,2013-01-02 14:40:00,
2013-01-02 09:50:00,25.4,14.9,29.97,WSW,245,2.0,2.0,64,0.00,,,0.00,Wunderground v.1.15,2013-01-02 14:50:00,
2013-01-02 10:00:00,26.0,15.8,29.98,West,272,2.0,4.0,65,0.00,,,0.00,Wunderground v.1.15,2013-01-02 15:00:00,
2013-01-02 10:10:00,26.2,15.3,29.97,WSW,257,2.0,2.0,63,0.00,,,0.00,Wunderground v.1.15,2013-01-02 15:10:00,
2013-01-02 10:20:00,26.4,15.1,29.97,WNW,290,2.0,2.0,62,0.00,,,0.00,Wunderground v.1.15,2013-01-02 15:20:00,
2013-01-02 10:30:00,26.6,14.9,29.97,WNW,283,2.0,2.0,61,0.00,,,0.00,Wunderground v.1.15,2013-01-02 15:30:00,
2013-01-02 10:40:00,27.0,15.7,29.96,WSW,257,2.0,2.0,62,0.00,,,0.00,Wunderground v.1.15,2013-01-02 15:40:00,
2013-01-02 10:50:00,27.4,14.9,29.96,WSW,238,2.0,2.0,59,0.00,,,0.00,Wunderground v.1.15,2013-01-02 15:50:00,
2013-01-02 11:00:00,27.7,15.2,29.96,West,271,2.0,2.0,59,0.00,,,0.00,Wunderground v.1.15,2013-01-02 16:00:00,
2013-01-02 11:10:00,28.0,15.1,29.95,WSW,253,2.0,2.0,58,0.00,,,0.00,Wunderground v.1.15,2013-01-02 16:10:00,
2013-01-02 11:20:00,28.6,16.1,29.94,WSW,257,2.0,2.0,59,0.00,,,0.00,Wunderground v.1.15,2013-01-02 16:20:00,
2013-01-02 11:30:00,29.1,16.9,29.94,West,281,1.0,1.0,60,0.00,,,0.00,Wunderground v.1.15,2013-01-02 16:30:00,
2013-01-02 11:40:00,29.6,17.4,29.93,WNW,284,1.0,1.0,60,0.00,,,0.00,Wunderground v.1.15,2013-01-02 16:40:00,
2013-01-02 11:50:00,29.8,14.7,29.93,West,269,3.0,3.0,53,0.00,,,0.00,Wunderground v.1.15,2013-01-02 16:50:00,
2013-01-02 12:00:00,29.6,15.0,29.93,WNW,284,3.0,3.0,54,0.00,,,0.00,Wunderground v.1.15,2013-01-02 17:00:00,
2013-01-02 12:10:00,29.9,16.1,29.92,SW,224,3.0,6.0,56,0.00,,,0.00,Wunderground v.1.15,2013-01-02 17:10:00,
2013-01-02 12:20:00,29.7,15.5,29.92,WSW,245,4.0,4.0,55,0.00,,,0.00,Wunderground v.1.15,2013-01-02 17:20:00,
2013-01-02 12:30:00,29.8,16.0,29.92,West,262,3.0,4.0,56,0.00,,,0.00,Wunderground v.1.15,2013-01-02 17:30:00,
2013-01-02 12:40:00,30.0,15.8,29.92,West,266,3.0,5.0,55,0.00,,,0.00,Wunderground v.1.15,2013-01-02 17:40:00,
2013-01-02 12:50:00,30.3,16.0,29.91,WSW,238,3.0,4.0,55,0.00,,,0.00,Wunderground v.1.15,2013-01-02 17:50:00,
2013-01-02 13:00:00,30.4,15.3,29.91,WNW,290,4.0,4.0,53,0.00,,,0.00,Wunderground v.1.15,2013-01-02 18:00:00,
2013-01-02 13:10:00,30.4,15.7,29.91,WSW,245,4.0,4.0,54,0.00,,,0.00,Wunderground v.1.15,2013-01-02 18:10:00,
2013-01-02 13:20:00,30.5,14.9,29.91,WSW,250,3.0,3.0,52,0.00,,,0.00,Wunderground v.1.15,2013-01-02 18:20:00,
2013-01-02 13:30:00,30.6,15.0,29.91,NNW,344,3.0,3.0,52,0.00,,,0.00,Wunderground v.1.15,2013-01-02 18:30:00,
2013-01-02 13:40:00,30.6,14.6,29.91,West,264,3.0,3.0,51,0.00,,,0.00,Wunderground v.1.15,2013-01-02 18:40:00,
2013-01-02 13:50:00,30.7,15.1,29.91,WNW,285,3.0,6.0,52,0.00,,,0.00,Wunderground v.1.15,2013-01-02 18:50:00,
2013-01-02 13:59:00,30.7,15.6,29.91,West,278,3.0,3.0,53,0.00,,,0.00,Wunderground v.1.15,2013-01-02 18:59:00,
2013-01-02 14:09:00,30.5,15.4,29.92,West,276,4.0,4.0,53,0.00,,,0.00,Wunderground v.1.15,2013-01-02 19:09:00,
2013-01-02 14:20:00,30.4,14.9,29.92,WNW,285,4.0,4.0,52,0.00,,,0.00,Wunderground v.1.15,2013-01-02 19:20:00,
2013-01-02 14:30:00,30.4,14.9,29.92,SSW,210,3.0,9.0,52,0.00,,,0.00,Wunderground v.1.15,2013-01-02 19:30:00,
2013-01-02 14:40:00,30.2,15.5,29.92,WNW,294,3.0,5.0,54,0.00,,,0.00,Wunderground v.1.15,2013-01-02 19:40:00,
2013-01-02 14:50:00,29.8,16.0,29.93,NW,315,3.0,4.0,56,0.00,,,0.00,Wunderground v.1.15,2013-01-02 19:50:00,
2013-01-02 15:00:00,29.8,15.2,29.93,WNW,284,3.0,3.0,54,0.00,,,0.00,Wunderground v.1.15,2013-01-02 20:00:00,
2013-01-02 15:10:00,29.6,14.5,29.94,WNW,293,4.0,5.0,53,0.00,,,0.00,Wunderground v.1.15,2013-01-02 20:10:00,
2013-01-02 15:20:00,29.6,15.4,29.94,NW,316,3.0,5.0,55,0.00,,,0.00,Wunderground v.1.15,2013-01-02 20:20:00,
2013-01-02 15:29:00,29.6,15.8,29.94,West,259,4.0,4.0,56,0.00,,,0.00,Wunderground v.1.15,2013-01-02 20:29:00,
2013-01-02 15:40:00,29.3,14.7,29.95,WSW,245,4.0,5.0,54,0.00,,,0.00,Wunderground v.1.15,2013-01-02 20:40:00,
2013-01-02 15:50:00,29.0,14.8,29.95,WNW,286,4.0,4.0,55,0.00,,,0.00,Wunderground v.1.15,2013-01-02 20:50:00,
2013-01-02 16:00:00,28.8,14.2,29.95,West,262,4.0,5.0,54,0.00,,,0.00,Wunderground v.1.15,2013-01-02 21:00:00,
2013-01-02 16:09:00,28.6,14.5,29.96,WNW,288,4.0,4.0,55,0.00,,,0.00,Wunderground v.1.15,2013-01-02 21:09:00,
2013-01-02 16:20:00,28.3,13.8,29.96,WNW,294,3.0,3.0,54,0.00,,,0.00,Wunderground v.1.15,2013-01-02 21:20:00,
2013-01-02 16:30:00,28.0,13.5,29.96,WNW,285,4.0,4.0,54,0.00,,,0.00,Wunderground v.1.15,2013-01-02 21:30:00,
2013-01-02 16:40:00,27.7,13.2,29.97,West,260,3.0,3.0,54,0.00,,,0.00,Wunderground v.1.15,2013-01-02 21:40:00,
2013-01-02 16:49:00,27.5,13.4,29.98,WNW,282,3.0,4.0,55,0.00,,,0.00,Wunderground v.1.15,2013-01-02 21:49:00,
2013-01-02 17:00:00,27.4,13.3,29.98,WNW,284,3.0,3.0,55,0.00,,,0.00,Wunderground v.1.15,2013-01-02 22:00:00,
2013-01-02 17:10:00,27.4,13.3,29.99,West,278,3.0,4.0,55,0.00,,,0.00,Wunderground v.1.15,2013-01-02 22:10:00,
2013-01-02 17:20:00,27.5,13.4,29.99,WNW,284,4.0,4.0,55,0.00,,,0.00,Wunderground v.1.15,2013-01-02 22:20:00,
2013-01-02 17:29:00,27.4,13.3,29.99,WNW,293,3.0,3.0,55,0.00,,,0.00,Wunderground v.1.15,2013-01-02 22:29:00,
2013-01-02 17:40:00,27.3,13.7,30.00,WSW,252,3.0,3.0,56,0.00,,,0.00,Wunderground v.1.15,2013-01-02 22:40:00,
2013-01-02 17:50:00,27.2,13.1,30.00,West,277,3.0,3.0,55,0.00,,,0.00,Wunderground v.1.15,2013-01-02 22:50:00,
2013-01-02 18:00:00,27.2,12.7,30.00,West,281,3.0,8.0,54,0.00,,,0.00,Wunderground v.1.15,2013-01-02 23:00:00,
2013-01-02 18:09:00,27.1,12.2,30.00,West,260,3.0,3.0,53,0.00,,,0.00,Wunderground v.1.15,2013-01-02 23:09:00,
2013-01-02 18:20:00,27.1,12.6,30.00,WNW,284,3.0,3.0,54,0.00,,,0.00,Wunderground v.1.15,2013-01-02 23:20:00,
2013-01-02 18:30:00,27.2,12.3,30.00,WSW,242,5.0,5.0,53,0.00,,,0.00,Wunderground v.1.15,2013-01-02 23:30:00,
2013-01-02 18:40:00,27.0,13.0,30.01,WNW,290,3.0,3.0,55,0.00,,,0.00,Wunderground v.1.15,2013-01-02 23:40:00,
2013-01-02 18:50:00,26.8,13.2,30.02,NW,304,3.0,4.0,56,0.00,,,0.00,Wunderground v.1.15,2013-01-02 23:50:00,
2013-01-02 19:00:00,26.7,13.5,30.01,WNW,282,3.0,3.0,57,0.00,,,0.00,Wunderground v.1.15,2013-01-03 00:00:00,
2013-01-02 19:10:00,26.4,13.2,30.02,NNW,338,3.0,5.0,57,0.00,,,0.00,Wunderground v.1.15,2013-01-03 00:10:00,
2013-01-02 19:20:00,26.2,13.0,30.02,West,259,2.0,3.0,57,0.00,,,0.00,Wunderground v.1.15,2013-01-03 00:20:00,
2013-01-02 19:30:00,26.2,13.0,30.01,WSW,243,4.0,4.0,57,0.00,,,0.00,Wunderground v.1.15,2013-01-03 00:30:00,
2013-01-02 19:40:00,26.1,13.3,30.02,NW,312,3.0,5.0,58,0.00,,,0.00,Wunderground v.1.15,2013-01-03 00:40:00,
2013-01-02 19:50:00,25.9,12.7,30.03,West,280,3.0,3.0,57,0.00,,,0.00,Wunderground v.1.15,2013-01-03 00:50:00,
2013-01-02 20:00:00,25.7,12.6,30.01,WSW,256,3.0,3.0,57,0.00,,,0.00,Wunderground v.1.15,2013-01-03 01:00:00,
2013-01-02 20:10:00,25.5,12.8,30.02,WNW,295,3.0,6.0,58,0.00,,,0.00,Wunderground v.1.15,2013-01-03 01:10:00,
2013-01-02 20:20:00,25.4,13.8,30.03,WNW,288,2.0,2.0,61,0.00,,,0.00,Wunderground v.1.15,2013-01-03 01:20:00,
2013-01-02 20:30:00,25.1,13.5,30.03,SW,225,2.0,2.0,61,0.00,,,0.00,Wunderground v.1.15,2013-01-03 01:30:00,
2013-01-02 20:40:00,24.9,13.3,30.04,WNW,284,2.0,2.0,61,0.00,,,0.00,Wunderground v.1.15,2013-01-03 01:40:00,
2013-01-02 20:50:00,24.8,12.5,30.04,WNW,290,3.0,3.0,59,0.00,,,0.00,Wunderground v.1.15,2013-01-03 01:50:00,
2013-01-02 21:00:00,24.6,12.7,30.03,West,280,2.0,2.0,60,0.00,,,0.00,Wunderground v.1.15,2013-01-03 02:00:00,
2013-01-02 21:10:00,24.5,12.6,30.03,SW,228,3.0,3.0,60,0.00,,,0.00,Wunderground v.1.15,2013-01-03 02:10:00,
2013-01-02 21:20:00,24.4,11.7,30.04,WSW,256,3.0,3.0,58,0.00,,,0.00,Wunderground v.1.15,2013-01-03 02:20:00,
2013-01-02 21:30:00,24.2,11.9,30.04,West,276,3.0,3.0,59,0.00,,,0.00,Wunderground v.1.15,2013-01-03 02:30:00,
2013-01-02 21:40:00,24.0,12.1,30.04,NW,315,2.0,2.0,60,0.00,,,0.00,Wunderground v.1.15,2013-01-03 02:40:00,
2013-01-02 21:50:00,23.8,10.4,30.05,NW,321,4.0,4.0,56,0.00,,,0.00,Wunderground v.1.15,2013-01-03 02:50:00,
2013-01-02 22:00:00,23.5,9.7,30.05,NW,312,4.0,4.0,55,0.00,,,0.00,Wunderground v.1.15,2013-01-03 03:00:00,
2013-01-02 22:10:00,23.3,9.9,30.06,West,274,3.0,3.0,56,0.00,,,0.00,Wunderground v.1.15,2013-01-03 03:10:00,
2013-01-02 22:20:00,22.9,9.9,30.07,WSW,257,3.0,3.0,57,0.00,,,0.00,Wunderground v.1.15,2013-01-03 03:20:00,
2013-01-02 22:50:00,22.2,7.6,30.06,North,1,3.0,4.0,53,0.00,,,0.00,Wunderground v.1.15,2013-01-03 03:50:00,
2013-01-02 23:00:00,22.1,8.8,30.06,West,276,4.0,4.0,56,0.00,,,0.00,Wunderground v.1.15,2013-01-03 04:00:00,
2013-01-02 23:10:00,22.0,8.3,30.06,WSW,253,3.0,4.0,55,0.00,,,0.00,Wunderground v.1.15,2013-01-03 04:10:00,
2013-01-02 23:20:00,21.9,9.4,30.06,NW,309,3.0,3.0,58,0.00,,,0.00,Wunderground v.1.15,2013-01-03 04:20:00,
2013-01-02 23:30:00,21.9,11.2,30.07,West,259,3.0,3.0,63,0.00,,,0.00,Wunderground v.1.15,2013-01-03 04:30:00,
2013-01-02 23:40:00,21.7,11.0,30.07,WSW,255,3.0,3.0,63,0.00,,,0.00,Wunderground v.1.15,2013-01-03 04:40:00,
2013-01-02 23:50:00,21.6,10.9,30.07,WNW,290,3.0,5.0,63,0.00,,,0.00,Wunderground v.1.15,2013-01-03 04:50:00,